sensor_id;sensor_type;location;lat;lon;timestamp;pressure;altitude;pressure_sealevel;temperature;humidity
76590;BME280;65471;55.908;37.880;2023-07-02T00:00:05;98042.25;;;17.44;81.52
76590;BME280;65471;55.908;37.880;2023-07-02T00:02:33;98036.31;;;17.42;81.68
76590;BME280;65471;55.908;37.880;2023-07-02T00:05:00;98045.47;;;17.37;82.04
76590;BME280;65471;55.908;37.880;2023-07-02T00:07:29;98043.84;;;17.36;81.91
76590;BME280;65471;55.908;37.880;2023-07-02T00:10:00;98044.50;;;17.33;82.06
76590;BME280;65471;55.908;37.880;2023-07-02T00:12:30;98043.22;;;17.31;82.21
76590;BME280;65471;55.908;37.880;2023-07-02T00:14:57;98038.22;;;17.33;82.21
76590;BME280;65471;55.908;37.880;2023-07-02T00:17:24;98036.94;;;17.30;81.94
76590;BME280;65471;55.908;37.880;2023-07-02T00:19:50;98045.94;;;17.31;82.04
76590;BME280;65471;55.908;37.880;2023-07-02T00:22:19;98029.38;;;17.27;82.03
76590;BME280;65471;55.908;37.880;2023-07-02T00:24:46;98037.72;;;17.22;82.40
76590;BME280;65471;55.908;37.880;2023-07-02T00:27:13;98042.38;;;17.21;82.40
76590;BME280;65471;55.908;37.880;2023-07-02T00:29:40;98039.63;;;17.21;82.61
76590;BME280;65471;55.908;37.880;2023-07-02T00:32:07;98041.56;;;17.21;82.43
76590;BME280;65471;55.908;37.880;2023-07-02T00:34:34;98043.84;;;17.19;82.48
76590;BME280;65471;55.908;37.880;2023-07-02T00:37:01;98041.72;;;17.16;82.46
76590;BME280;65471;55.908;37.880;2023-07-02T00:39:28;98038.19;;;17.15;82.86
76590;BME280;65471;55.908;37.880;2023-07-02T00:42:00;98039.31;;;17.14;82.85
76590;BME280;65471;55.908;37.880;2023-07-02T00:44:28;98035.31;;;17.12;82.96
76590;BME280;65471;55.908;37.880;2023-07-02T00:46:55;98048.13;;;17.11;82.89
76590;BME280;65471;55.908;37.880;2023-07-02T00:49:22;98040.59;;;17.08;82.95
76590;BME280;65471;55.908;37.880;2023-07-02T00:51:50;98035.75;;;17.05;83.04
76590;BME280;65471;55.908;37.880;2023-07-02T00:54:17;98049.75;;;17.03;83.03
76590;BME280;65471;55.908;37.880;2023-07-02T00:56:44;98046.81;;;17.00;83.37
76590;BME280;65471;55.908;37.880;2023-07-02T00:59:12;98059.00;;;16.94;83.52
76590;BME280;65471;55.908;37.880;2023-07-02T01:01:39;98056.75;;;16.96;83.58
76590;BME280;65471;55.908;37.880;2023-07-02T01:04:06;98053.22;;;16.95;83.56
76590;BME280;65471;55.908;37.880;2023-07-02T01:06:39;98053.88;;;16.92;83.57
76590;BME280;65471;55.908;37.880;2023-07-02T01:09:10;98058.50;;;16.91;83.69
76590;BME280;65471;55.908;37.880;2023-07-02T01:11:53;98054.81;;;16.87;83.72
76590;BME280;65471;55.908;37.880;2023-07-02T01:14:31;98059.97;;;16.89;83.82
76590;BME280;65471;55.908;37.880;2023-07-02T01:16:59;98060.53;;;16.86;83.91
76590;BME280;65471;55.908;37.880;2023-07-02T01:22:23;98068.56;;;16.82;83.86
76590;BME280;65471;55.908;37.880;2023-07-02T01:24:52;98055.91;;;16.86;84.20
76590;BME280;65471;55.908;37.880;2023-07-02T01:27:20;98055.91;;;16.86;84.01
76590;BME280;65471;55.908;37.880;2023-07-02T01:29:51;98058.03;;;16.89;84.08
76590;BME280;65471;55.908;37.880;2023-07-02T01:32:19;98058.50;;;16.91;84.14
76590;BME280;65471;55.908;37.880;2023-07-02T01:34:47;98065.13;;;16.90;83.99
76590;BME280;65471;55.908;37.880;2023-07-02T01:37:16;98061.88;;;16.88;83.94
76590;BME280;65471;55.908;37.880;2023-07-02T01:39:43;98060.06;;;16.84;84.16
76590;BME280;65471;55.908;37.880;2023-07-02T01:42:13;98071.63;;;16.81;84.24
76590;BME280;65471;55.908;37.880;2023-07-02T01:44:44;98075.16;;;16.81;84.48
76590;BME280;65471;55.908;37.880;2023-07-02T01:47:11;98070.16;;;16.74;84.57
76590;BME280;65471;55.908;37.880;2023-07-02T01:49:38;98074.66;;;16.79;84.61
76590;BME280;65471;55.908;37.880;2023-07-02T01:52:06;98082.84;;;16.79;84.67
76590;BME280;65471;55.908;37.880;2023-07-02T01:54:35;98074.03;;;16.82;84.45
76590;BME280;65471;55.908;37.880;2023-07-02T01:57:03;98078.38;;;16.83;84.68
76590;BME280;65471;55.908;37.880;2023-07-02T01:59:31;98077.88;;;16.81;84.77
76590;BME280;65471;55.908;37.880;2023-07-02T02:01:58;98079.50;;;16.82;84.78
76590;BME280;65471;55.908;37.880;2023-07-02T02:04:25;98079.19;;;16.84;84.84
76590;BME280;65471;55.908;37.880;2023-07-02T02:06:52;98079.50;;;16.82;84.98
76590;BME280;65471;55.908;37.880;2023-07-02T02:09:19;98081.75;;;16.80;84.83
76590;BME280;65471;55.908;37.880;2023-07-02T02:11:49;98084.16;;;16.82;85.08
76590;BME280;65471;55.908;37.880;2023-07-02T02:14:17;98089.63;;;16.82;85.18
76590;BME280;65471;55.908;37.880;2023-07-02T02:16:44;98084.63;;;16.84;85.06
76590;BME280;65471;55.908;37.880;2023-07-02T02:19:14;98092.81;;;16.84;85.29
76590;BME280;65471;55.908;37.880;2023-07-02T02:21:42;98083.53;;;16.85;85.31
76590;BME280;65471;55.908;37.880;2023-07-02T02:24:10;98089.47;;;16.87;85.23
76590;BME280;65471;55.908;37.880;2023-07-02T02:26:38;98081.81;;;16.89;85.44
76590;BME280;65471;55.908;37.880;2023-07-02T02:29:04;98079.06;;;16.89;85.39
76590;BME280;65471;55.908;37.880;2023-07-02T02:31:31;98072.97;;;16.92;85.32
76590;BME280;65471;55.908;37.880;2023-07-02T02:33:59;98083.91;;;16.92;85.12
76590;BME280;65471;55.908;37.880;2023-07-02T02:36:26;98079.88;;;16.89;85.15
76590;BME280;65471;55.908;37.880;2023-07-02T02:38:53;98074.88;;;16.91;85.10
76590;BME280;65471;55.908;37.880;2023-07-02T02:41:19;98067.53;;;16.92;85.20
76590;BME280;65471;55.908;37.880;2023-07-02T02:43:46;98070.72;;;16.94;85.23
76590;BME280;65471;55.908;37.880;2023-07-02T02:46:19;98071.72;;;16.98;85.38
76590;BME280;65471;55.908;37.880;2023-07-02T02:48:47;98074.75;;;16.97;85.42
76590;BME280;65471;55.908;37.880;2023-07-02T02:51:14;98078.00;;;16.99;85.32
76590;BME280;65471;55.908;37.880;2023-07-02T02:53:41;98077.84;;;17.04;85.16
76590;BME280;65471;55.908;37.880;2023-07-02T02:56:08;98077.50;;;17.05;85.25
76590;BME280;65471;55.908;37.880;2023-07-02T02:58:35;98074.47;;;17.07;85.11
76590;BME280;65471;55.908;37.880;2023-07-02T03:01:02;98077.69;;;17.09;85.12
76590;BME280;65471;55.908;37.880;2023-07-02T03:03:41;98082.53;;;17.12;85.24
76590;BME280;65471;55.908;37.880;2023-07-02T03:06:14;98087.34;;;17.15;84.99
76590;BME280;65471;55.908;37.880;2023-07-02T03:08:42;98085.91;;;17.18;85.14
76590;BME280;65471;55.908;37.880;2023-07-02T03:11:09;98097.50;;;17.23;85.12
76590;BME280;65471;55.908;37.880;2023-07-02T03:13:36;98092.19;;;17.27;84.87
76590;BME280;65471;55.908;37.880;2023-07-02T03:16:03;98099.78;;;17.30;84.89
76590;BME280;65471;55.908;37.880;2023-07-02T03:18:31;98101.88;;;17.33;84.85
76590;BME280;65471;55.908;37.880;2023-07-02T03:20:59;98108.31;;;17.37;84.68
76590;BME280;65471;55.908;37.880;2023-07-02T03:23:26;98102.53;;;17.39;84.54
76590;BME280;65471;55.908;37.880;2023-07-02T03:25:53;98105.91;;;17.45;84.39
76590;BME280;65471;55.908;37.880;2023-07-02T03:28:20;98115.25;;;17.52;84.09
76590;BME280;65471;55.908;37.880;2023-07-02T03:30:46;98123.78;;;17.59;83.78
76590;BME280;65471;55.908;37.880;2023-07-02T03:33:14;98120.91;;;17.65;83.77
76590;BME280;65471;55.908;37.880;2023-07-02T03:35:41;98124.28;;;17.70;83.50
76590;BME280;65471;55.908;37.880;2023-07-02T03:38:08;98128.31;;;17.73;83.33
76590;BME280;65471;55.908;37.880;2023-07-02T03:40:35;98130.41;;;17.76;83.11
76590;BME280;65471;55.908;37.880;2023-07-02T03:43:02;98137.00;;;17.75;82.82
76590;BME280;65471;55.908;37.880;2023-07-02T03:45:29;98136.50;;;17.73;82.62
76590;BME280;65471;55.908;37.880;2023-07-02T03:47:56;98143.41;;;17.70;82.71
76590;BME280;65471;55.908;37.880;2023-07-02T03:50:23;98144.06;;;17.67;82.64
76590;BME280;65471;55.908;37.880;2023-07-02T03:52:50;98153.84;;;17.68;82.58
76590;BME280;65471;55.908;37.880;2023-07-02T03:55:17;98152.25;;;17.67;82.58
76590;BME280;65471;55.908;37.880;2023-07-02T03:57:45;98151.28;;;17.63;82.47
76590;BME280;65471;55.908;37.880;2023-07-02T04:00:12;98159.63;;;17.67;82.43
76590;BME280;65471;55.908;37.880;2023-07-02T04:02:39;98161.72;;;17.70;82.30
76590;BME280;65471;55.908;37.880;2023-07-02T04:05:07;98155.47;;;17.69;82.14
76590;BME280;65471;55.908;37.880;2023-07-02T04:07:34;98161.13;;;17.73;82.11
76590;BME280;65471;55.908;37.880;2023-07-02T04:10:01;98161.59;;;17.75;81.72
76590;BME280;65471;55.908;37.880;2023-07-02T04:12:31;98165.31;;;17.79;81.50
76590;BME280;65471;55.908;37.880;2023-07-02T04:14:57;98167.88;;;17.84;81.28
76590;BME280;65471;55.908;37.880;2023-07-02T04:17:24;98158.91;;;17.92;80.96
76590;BME280;65471;55.908;37.880;2023-07-02T04:19:54;98159.88;;;17.97;80.96
76590;BME280;65471;55.908;37.880;2023-07-02T04:22:21;98165.34;;;17.97;80.75
76590;BME280;65471;55.908;37.880;2023-07-02T04:24:48;98155.53;;;17.96;80.78
76590;BME280;65471;55.908;37.880;2023-07-02T04:27:17;98163.72;;;17.96;80.68
76590;BME280;65471;55.908;37.880;2023-07-02T04:30:04;98159.09;;;17.96;80.60
76590;BME280;65471;55.908;37.880;2023-07-02T04:32:32;98163.03;;;17.90;80.74
76590;BME280;65471;55.908;37.880;2023-07-02T04:34:59;98171.13;;;18.04;80.52
76590;BME280;65471;55.908;37.880;2023-07-02T04:37:26;98172.44;;;18.15;80.04
76590;BME280;65471;55.908;37.880;2023-07-02T04:39:55;98172.75;;;18.22;79.81
76590;BME280;65471;55.908;37.880;2023-07-02T04:42:22;98172.28;;;18.29;79.53
76590;BME280;65471;55.908;37.880;2023-07-02T04:44:54;98164.84;;;18.38;79.22
76590;BME280;65471;55.908;37.880;2023-07-02T04:47:22;98159.72;;;18.45;78.60
76590;BME280;65471;55.908;37.880;2023-07-02T04:49:49;98161.81;;;18.49;77.86
76590;BME280;65471;55.908;37.880;2023-07-02T04:52:16;98153.59;;;18.57;77.66
76590;BME280;65471;55.908;37.880;2023-07-02T04:54:43;98160.97;;;18.66;77.47
76590;BME280;65471;55.908;37.880;2023-07-02T04:57:10;98166.28;;;18.71;77.37
76590;BME280;65471;55.908;37.880;2023-07-02T04:59:37;98162.72;;;18.79;77.34
76590;BME280;65471;55.908;37.880;2023-07-02T05:02:03;98158.53;;;18.90;76.79
76590;BME280;65471;55.908;37.880;2023-07-02T05:04:30;98168.16;;;18.96;76.44
76590;BME280;65471;55.908;37.880;2023-07-02T05:06:57;98162.03;;;19.00;76.21
76590;BME280;65471;55.908;37.880;2023-07-02T05:09:24;98170.25;;;19.00;75.74
76590;BME280;65471;55.908;37.880;2023-07-02T05:11:51;98161.25;;;18.99;75.68
76590;BME280;65471;55.908;37.880;2023-07-02T05:14:18;98162.03;;;19.00;75.60
76590;BME280;65471;55.908;37.880;2023-07-02T05:16:45;98159.13;;;19.05;75.50
76590;BME280;65471;55.908;37.880;2023-07-02T05:19:12;98161.38;;;19.11;75.56
76590;BME280;65471;55.908;37.880;2023-07-02T05:21:39;98164.91;;;19.12;75.21
76590;BME280;65471;55.908;37.880;2023-07-02T05:24:07;98162.44;;;19.19;74.84
76590;BME280;65471;55.908;37.880;2023-07-02T05:26:35;98152.44;;;19.23;74.49
76590;BME280;65471;55.908;37.880;2023-07-02T05:29:02;98161.13;;;19.34;74.35
76590;BME280;65471;55.908;37.880;2023-07-02T05:31:29;98160.25;;;19.42;73.92
76590;BME280;65471;55.908;37.880;2023-07-02T05:33:56;98160.06;;;19.47;73.39
76590;BME280;65471;55.908;37.880;2023-07-02T05:36:23;98155.03;;;19.58;73.20
76590;BME280;65471;55.908;37.880;2023-07-02T05:38:50;98160.63;;;19.62;73.02
76590;BME280;65471;55.908;37.880;2023-07-02T05:41:20;98170.31;;;19.59;72.81
76590;BME280;65471;55.908;37.880;2023-07-02T05:43:47;98164.84;;;19.59;73.18
76590;BME280;65471;55.908;37.880;2023-07-02T05:46:15;98161.59;;;19.66;72.96
76590;BME280;65471;55.908;37.880;2023-07-02T05:48:42;98167.41;;;19.64;72.38
76590;BME280;65471;55.908;37.880;2023-07-02T05:51:09;98168.69;;;19.67;71.71
76590;BME280;65471;55.908;37.880;2023-07-02T05:53:37;98169.97;;;19.70;71.75
76590;BME280;65471;55.908;37.880;2023-07-02T05:56:04;98164.59;;;19.73;71.72
76590;BME280;65471;55.908;37.880;2023-07-02T05:58:31;98167.16;;;19.78;71.30
76590;BME280;65471;55.908;37.880;2023-07-02T06:01:13;98165.88;;;19.76;70.71
76590;BME280;65471;55.908;37.880;2023-07-02T06:03:42;98170.06;;;19.82;70.06
76590;BME280;65471;55.908;37.880;2023-07-02T06:06:11;98176.50;;;19.86;69.22
76590;BME280;65471;55.908;37.880;2023-07-02T06:08:38;98172.28;;;19.89;68.89
76590;BME280;65471;55.908;37.880;2023-07-02T06:11:05;98178.22;;;19.91;68.36
76590;BME280;65471;55.908;37.880;2023-07-02T06:13:32;98174.84;;;19.94;67.50
76590;BME280;65471;55.908;37.880;2023-07-02T06:15:59;98175.22;;;20.05;67.58
76590;BME280;65471;55.908;37.880;2023-07-02T06:18:26;98177.44;;;20.11;65.99
76590;BME280;65471;55.908;37.880;2023-07-02T06:20:53;98182.41;;;20.18;65.03
76590;BME280;65471;55.908;37.880;2023-07-02T06:23:20;98178.44;;;20.28;65.27
76590;BME280;65471;55.908;37.880;2023-07-02T06:25:47;98175.84;;;20.31;64.89
76590;BME280;65471;55.908;37.880;2023-07-02T06:28:14;98176.44;;;20.37;65.12
76590;BME280;65471;55.908;37.880;2023-07-02T06:30:41;98182.53;;;20.43;65.47
76590;BME280;65471;55.908;37.880;2023-07-02T06:33:08;98178.56;;;20.52;65.43
76590;BME280;65471;55.908;37.880;2023-07-02T06:35:35;98180.03;;;20.50;66.07
76590;BME280;65471;55.908;37.880;2023-07-02T06:38:02;98178.41;;;20.49;65.36
76590;BME280;65471;55.908;37.880;2023-07-02T06:40:29;98183.22;;;20.52;64.81
76590;BME280;65471;55.908;37.880;2023-07-02T06:42:56;98183.97;;;20.61;64.81
76590;BME280;65471;55.908;37.880;2023-07-02T06:45:22;98178.75;;;20.68;63.75
76590;BME280;65471;55.908;37.880;2023-07-02T06:47:49;98180.63;;;20.77;63.31
76590;BME280;65471;55.908;37.880;2023-07-02T06:50:16;98175.38;;;20.84;63.54
76590;BME280;65471;55.908;37.880;2023-07-02T06:52:43;98178.25;;;20.88;63.10
76590;BME280;65471;55.908;37.880;2023-07-02T06:55:10;98182.72;;;20.92;62.88
76590;BME280;65471;55.908;37.880;2023-07-02T06:57:44;98181.81;;;21.00;62.37
76590;BME280;65471;55.908;37.880;2023-07-02T07:00:14;98176.91;;;21.06;62.16
76590;BME280;65471;55.908;37.880;2023-07-02T07:02:42;98174.63;;;21.08;62.35
76590;BME280;65471;55.908;37.880;2023-07-02T07:05:09;98173.16;;;21.11;62.85
76590;BME280;65471;55.908;37.880;2023-07-02T07:07:36;98184.94;;;21.11;62.96
76590;BME280;65471;55.908;37.880;2023-07-02T07:10:04;98185.97;;;21.07;63.36
76590;BME280;65471;55.908;37.880;2023-07-02T07:12:31;98177.97;;;21.14;62.59
76590;BME280;65471;55.908;37.880;2023-07-02T07:14:58;98188.84;;;21.23;60.68
76590;BME280;65471;55.908;37.880;2023-07-02T07:17:25;98181.06;;;21.37;59.65
76590;BME280;65471;55.908;37.880;2023-07-02T07:19:52;98180.16;;;21.45;58.99
76590;BME280;65471;55.908;37.880;2023-07-02T07:22:19;98177.78;;;21.56;58.42
76590;BME280;65471;55.908;37.880;2023-07-02T07:24:46;98184.19;;;21.60;58.85
76590;BME280;65471;55.908;37.880;2023-07-02T07:27:13;98182.22;;;21.48;59.28
76590;BME280;65471;55.908;37.880;2023-07-02T07:29:40;98193.56;;;21.34;59.17
76590;BME280;65471;55.908;37.880;2023-07-02T07:32:07;98190.13;;;21.25;59.37
76590;BME280;65471;55.908;37.880;2023-07-02T07:34:34;98184.84;;;21.32;58.11
76590;BME280;65471;55.908;37.880;2023-07-02T07:37:01;98186.59;;;21.49;57.87
76590;BME280;65471;55.908;37.880;2023-07-02T07:39:28;98191.09;;;21.66;56.64
76590;BME280;65471;55.908;37.880;2023-07-02T07:41:55;98193.72;;;21.75;56.98
76590;BME280;65471;55.908;37.880;2023-07-02T07:44:22;98196.25;;;21.68;56.15
76590;BME280;65471;55.908;37.880;2023-07-02T07:46:49;98200.13;;;21.67;56.23
76590;BME280;65471;55.908;37.880;2023-07-02T07:49:16;98205.28;;;21.68;56.69
76590;BME280;65471;55.908;37.880;2023-07-02T07:51:42;98202.97;;;21.70;56.43
76590;BME280;65471;55.908;37.880;2023-07-02T07:54:09;98201.50;;;21.61;57.21
76590;BME280;65471;55.908;37.880;2023-07-02T07:56:36;98201.59;;;21.52;57.78
76590;BME280;65471;55.908;37.880;2023-07-02T07:59:03;98206.16;;;21.35;58.21
76590;BME280;65471;55.908;37.880;2023-07-02T08:01:30;98198.38;;;21.25;58.79
76590;BME280;65471;55.908;37.880;2023-07-02T08:03:57;98201.66;;;21.18;58.02
76590;BME280;65471;55.908;37.880;2023-07-02T08:06:24;98198.47;;;21.16;57.59
76590;BME280;65471;55.908;37.880;2023-07-02T08:08:51;98205.69;;;21.21;57.89
76590;BME280;65471;55.908;37.880;2023-07-02T08:11:18;98216.13;;;21.28;58.45
76590;BME280;65471;55.908;37.880;2023-07-02T08:13:45;98204.22;;;21.24;59.27
76590;BME280;65471;55.908;37.880;2023-07-02T08:16:12;98209.56;;;21.20;59.39
76590;BME280;65471;55.908;37.880;2023-07-02T08:18:40;98212.75;;;21.10;60.31
76590;BME280;65471;55.908;37.880;2023-07-02T08:21:07;98212.03;;;21.00;61.13
76590;BME280;65471;55.908;37.880;2023-07-02T08:23:34;98215.81;;;20.96;61.57
76590;BME280;65471;55.908;37.880;2023-07-02T08:26:01;98219.94;;;20.90;62.67
76590;BME280;65471;55.908;37.880;2023-07-02T08:28:29;98220.25;;;20.88;62.16
76590;BME280;65471;55.908;37.880;2023-07-02T08:30:56;98216.16;;;20.94;63.07
76590;BME280;65471;55.908;37.880;2023-07-02T08:33:23;98214.84;;;21.25;63.31
76590;BME280;65471;55.908;37.880;2023-07-02T08:35:49;98207.34;;;21.71;62.28
76590;BME280;65471;55.908;37.880;2023-07-02T08:38:16;98200.22;;;22.08;61.60
76590;BME280;65471;55.908;37.880;2023-07-02T08:40:44;98203.25;;;22.31;60.01
76590;BME280;65471;55.908;37.880;2023-07-02T08:43:10;98212.31;;;22.19;59.58
76590;BME280;65471;55.908;37.880;2023-07-02T08:45:40;98207.91;;;22.02;59.36
76590;BME280;65471;55.908;37.880;2023-07-02T08:48:08;98209.19;;;21.80;59.73
76590;BME280;65471;55.908;37.880;2023-07-02T08:50:35;98207.38;;;21.59;59.77
76590;BME280;65471;55.908;37.880;2023-07-02T08:53:02;98219.25;;;21.51;60.49
76590;BME280;65471;55.908;37.880;2023-07-02T08:55:29;98213.97;;;21.46;60.38
76590;BME280;65471;55.908;37.880;2023-07-02T08:57:56;98225.44;;;21.48;60.86
76590;BME280;65471;55.908;37.880;2023-07-02T09:00:26;98229.94;;;21.65;60.67
76590;BME280;65471;55.908;37.880;2023-07-02T09:02:53;98224.75;;;21.76;60.60
76590;BME280;65471;55.908;37.880;2023-07-02T09:05:20;98213.97;;;21.83;59.86
76590;BME280;65471;55.908;37.880;2023-07-02T09:07:49;98220.63;;;21.94;58.94
76590;BME280;65471;55.908;37.880;2023-07-02T09:10:30;98217.13;;;22.34;57.87
76590;BME280;65471;55.908;37.880;2023-07-02T09:13:05;98215.97;;;22.76;57.76
76590;BME280;65471;55.908;37.880;2023-07-02T09:15:36;98214.34;;;23.03;56.71
76590;BME280;65471;55.908;37.880;2023-07-02T09:18:14;98218.78;;;23.08;56.67
76590;BME280;65471;55.908;37.880;2023-07-02T09:20:42;98221.31;;;22.85;56.25
76590;BME280;65471;55.908;37.880;2023-07-02T09:23:08;98217.94;;;22.91;55.89
76590;BME280;65471;55.908;37.880;2023-07-02T09:25:37;98221.97;;;22.94;54.70
76590;BME280;65471;55.908;37.880;2023-07-02T09:28:20;98225.34;;;22.87;53.97
76590;BME280;65471;55.908;37.880;2023-07-02T09:30:55;98227.50;;;23.10;54.31
76590;BME280;65471;55.908;37.880;2023-07-02T09:33:32;98223.38;;;23.16;55.13
76590;BME280;65471;55.908;37.880;2023-07-02T09:35:59;98227.06;;;23.08;55.32
76590;BME280;65471;55.908;37.880;2023-07-02T09:38:27;98216.38;;;22.90;55.59
76590;BME280;65471;55.908;37.880;2023-07-02T09:40:53;98221.75;;;22.87;55.25
76590;BME280;65471;55.908;37.880;2023-07-02T09:43:21;98216.16;;;22.83;55.80
76590;BME280;65471;55.908;37.880;2023-07-02T09:45:52;98221.56;;;22.80;55.92
76590;BME280;65471;55.908;37.880;2023-07-02T09:48:24;98217.41;;;22.86;54.23
76590;BME280;65471;55.908;37.880;2023-07-02T09:50:52;98210.50;;;22.92;52.69
76590;BME280;65471;55.908;37.880;2023-07-02T09:53:20;98216.19;;;22.99;51.47
76590;BME280;65471;55.908;37.880;2023-07-02T09:55:47;98214.59;;;22.98;52.96
76590;BME280;65471;55.908;37.880;2023-07-02T09:58:15;98209.94;;;22.86;53.54
76590;BME280;65471;55.908;37.880;2023-07-02T10:00:43;98199.34;;;22.88;52.70
76590;BME280;65471;55.908;37.880;2023-07-02T10:03:10;98211.34;;;22.80;52.93
76590;BME280;65471;55.908;37.880;2023-07-02T10:05:37;98209.91;;;22.70;52.34
76590;BME280;65471;55.908;37.880;2023-07-02T10:08:15;98203.66;;;22.57;50.79
76590;BME280;65471;55.908;37.880;2023-07-02T10:10:44;98207.09;;;22.54;51.10
76590;BME280;65471;55.908;37.880;2023-07-02T10:13:12;98207.44;;;22.53;51.11
76590;BME280;65471;55.908;37.880;2023-07-02T10:15:39;98203.75;;;22.61;50.64
76590;BME280;65471;55.908;37.880;2023-07-02T10:18:06;98208.16;;;22.78;49.70
76590;BME280;65471;55.908;37.880;2023-07-02T10:23:01;98205.31;;;23.19;49.75
76590;BME280;65471;55.908;37.880;2023-07-02T10:25:36;98195.00;;;23.32;49.57
76590;BME280;65471;55.908;37.880;2023-07-02T10:28:18;98205.22;;;23.31;48.10
76590;BME280;65471;55.908;37.880;2023-07-02T10:30:46;98205.03;;;23.24;49.58
76590;BME280;65471;55.908;37.880;2023-07-02T10:33:15;98206.25;;;23.10;50.08
76590;BME280;65471;55.908;37.880;2023-07-02T10:35:44;98216.78;;;23.21;49.84
76590;BME280;65471;55.908;37.880;2023-07-02T10:38:21;98209.78;;;23.39;49.57
76590;BME280;65471;55.908;37.880;2023-07-02T10:40:55;98207.81;;;23.40;50.08
76590;BME280;65471;55.908;37.880;2023-07-02T10:43:32;98222.41;;;23.24;49.85
76590;BME280;65471;55.908;37.880;2023-07-02T10:45:59;98222.13;;;23.14;50.53
76590;BME280;65471;55.908;37.880;2023-07-02T10:48:28;98219.53;;;23.21;50.16
76590;BME280;65471;55.908;37.880;2023-07-02T10:50:55;98219.91;;;23.35;49.92
76590;BME280;65471;55.908;37.880;2023-07-02T10:53:23;98211.00;;;23.58;49.96
76590;BME280;65471;55.908;37.880;2023-07-02T10:55:56;98207.59;;;23.97;48.84
76590;BME280;65471;55.908;37.880;2023-07-02T10:58:25;98203.63;;;24.13;47.90
76590;BME280;65471;55.908;37.880;2023-07-02T11:00:52;98224.78;;;24.06;48.03
76590;BME280;65471;55.908;37.880;2023-07-02T11:03:25;98205.47;;;23.90;47.18
76590;BME280;65471;55.908;37.880;2023-07-02T11:05:53;98217.75;;;23.76;48.05
76590;BME280;65471;55.908;37.880;2023-07-02T11:08:21;98221.78;;;23.63;46.88
76590;BME280;65471;55.908;37.880;2023-07-02T11:10:50;98231.47;;;23.57;47.06
76590;BME280;65471;55.908;37.880;2023-07-02T11:13:19;98228.53;;;23.50;47.50
76590;BME280;65471;55.908;37.880;2023-07-02T11:15:47;98220.63;;;23.32;47.53
76590;BME280;65471;55.908;37.880;2023-07-02T11:18:16;98232.91;;;23.19;47.84
76590;BME280;65471;55.908;37.880;2023-07-02T11:20:45;98232.91;;;23.19;48.41
76590;BME280;65471;55.908;37.880;2023-07-02T11:23:25;98241.53;;;23.65;48.25
76590;BME280;65471;55.908;37.880;2023-07-02T11:25:58;98229.63;;;24.12;47.30
76590;BME280;65471;55.908;37.880;2023-07-02T11:28:26;98228.69;;;24.40;48.05
76590;BME280;65471;55.908;37.880;2023-07-02T11:30:53;98234.13;;;24.56;47.92
76590;BME280;65471;55.908;37.880;2023-07-02T11:33:41;98235.09;;;24.84;47.08
76590;BME280;65471;55.908;37.880;2023-07-02T11:36:19;98242.41;;;24.56;48.03
76590;BME280;65471;55.908;37.880;2023-07-02T11:38:46;98226.25;;;25.17;47.09
76590;BME280;65471;55.908;37.880;2023-07-02T11:41:14;98231.06;;;26.47;43.93
76590;BME280;65471;55.908;37.880;2023-07-02T11:43:41;98234.78;;;27.30;40.01
76590;BME280;65471;55.908;37.880;2023-07-02T11:46:08;98241.69;;;27.06;41.03
76590;BME280;65471;55.908;37.880;2023-07-02T11:48:35;98245.13;;;26.04;42.51
76590;BME280;65471;55.908;37.880;2023-07-02T11:51:02;98237.38;;;25.21;43.93
76590;BME280;65471;55.908;37.880;2023-07-02T11:53:29;98238.72;;;24.88;45.71
76590;BME280;65471;55.908;37.880;2023-07-02T11:55:56;98229.53;;;25.23;45.70
76590;BME280;65471;55.908;37.880;2023-07-02T11:58:22;98236.63;;;25.93;44.72
76590;BME280;65471;55.908;37.880;2023-07-02T12:00:49;98235.44;;;26.78;42.84
76590;BME280;65471;55.908;37.880;2023-07-02T12:03:16;98224.56;;;27.37;40.37
76590;BME280;65471;55.908;37.880;2023-07-02T12:05:43;98243.22;;;27.89;39.86
76590;BME280;65471;55.908;37.880;2023-07-02T12:08:10;98236.94;;;27.44;38.69
76590;BME280;65471;55.908;37.880;2023-07-02T12:10:37;98242.81;;;26.67;40.45
76590;BME280;65471;55.908;37.880;2023-07-02T12:13:04;98247.19;;;26.11;41.79
76590;BME280;65471;55.908;37.880;2023-07-02T12:15:31;98245.91;;;25.55;42.73
76590;BME280;65471;55.908;37.880;2023-07-02T12:17:58;98242.72;;;25.10;43.01
76590;BME280;65471;55.908;37.880;2023-07-02T12:20:25;98249.00;;;24.87;43.60
76590;BME280;65471;55.908;37.880;2023-07-02T12:22:52;98254.63;;;24.71;44.37
76590;BME280;65471;55.908;37.880;2023-07-02T12:25:20;98236.84;;;24.53;44.18
76590;BME280;65471;55.908;37.880;2023-07-02T12:27:46;98240.06;;;24.19;45.04
76590;BME280;65471;55.908;37.880;2023-07-02T12:30:13;98249.63;;;23.90;45.20
76590;BME280;65471;55.908;37.880;2023-07-02T12:32:44;98240.09;;;23.71;44.74
76590;BME280;65471;55.908;37.880;2023-07-02T12:35:11;98247.78;;;23.62;45.45
76590;BME280;65471;55.908;37.880;2023-07-02T12:37:45;98253.47;;;23.53;45.71
76590;BME280;65471;55.908;37.880;2023-07-02T12:40:13;98254.16;;;23.34;46.64
76590;BME280;65471;55.908;37.880;2023-07-02T12:42:41;98255.75;;;23.19;47.12
76590;BME280;65471;55.908;37.880;2023-07-02T12:45:09;98250.03;;;23.12;47.29
76590;BME280;65471;55.908;37.880;2023-07-02T12:47:36;98254.28;;;23.09;47.50
76590;BME280;65471;55.908;37.880;2023-07-02T12:50:03;98253.72;;;23.04;47.41
76590;BME280;65471;55.908;37.880;2023-07-02T12:52:31;98245.50;;;22.91;48.17
76590;BME280;65471;55.908;37.880;2023-07-02T12:54:58;98236.38;;;22.87;47.58
76590;BME280;65471;55.908;37.880;2023-07-02T12:57:26;98239.16;;;23.03;44.92
76590;BME280;65471;55.908;37.880;2023-07-02T12:59:54;98238.22;;;23.12;46.58